Time;durP1;ratioP1;P1;durP2;ratioP2;P2;SDS_P1;SDS_P2;PMS_P1;PMS_P2;Temp;Humidity;BMP_temperature;BMP_pressure;BME280_temperature;BME280_humidity;BME280_pressure;Samples;Min_cycle;Max_cycle;Signal;HPM_P1;HPM_P2
2020/12/23 00:00:11;;;;;;;2.90;1.20;;;13.20;86.50;;;;;;4996003;28;20381;-81
2020/12/23 00:02:36;;;;;;;1.67;1.05;;;13.20;86.40;;;;;;5014461;28;20022;-81
2020/12/23 00:05:06;;;;;;;1.33;0.88;;;13.20;86.50;;;;;;5014137;28;20033;-83
2020/12/23 00:07:31;;;;;;;1.67;0.98;;;13.20;86.60;;;;;;5014397;28;20619;-82
2020/12/23 00:09:57;;;;;;;2.63;1.35;;;13.30;86.40;;;;;;5014678;28;20168;-83
2020/12/23 00:12:23;;;;;;;3.05;1.50;;;13.20;86.30;;;;;;4999152;28;20048;-83
2020/12/23 00:14:48;;;;;;;3.25;1.40;;;13.20;86.40;;;;;;5020134;28;20141;-84
2020/12/23 00:17:20;;;;;;;1.67;1.20;;;13.20;86.40;;;;;;4998065;28;20026;-84
2020/12/23 00:19:48;;;;;;;2.00;1.40;;;13.20;86.60;;;;;;5020631;28;20017;-82
2020/12/23 00:22:15;;;;;;;3.03;1.50;;;13.30;86.60;;;;;;4998477;28;20498;-82
2020/12/23 00:24:41;;;;;;;2.90;1.70;;;13.20;86.60;;;;;;5013933;28;20497;-83
2020/12/23 00:27:07;;;;;;;1.67;1.33;;;13.30;86.60;;;;;;5014240;28;20030;-83
2020/12/23 00:29:32;;;;;;;1.50;1.30;;;13.30;86.60;;;;;;5020502;28;20103;-83
2020/12/23 00:31:58;;;;;;;1.20;0.95;;;13.30;86.60;;;;;;5037107;28;20427;-83
2020/12/23 00:34:24;;;;;;;3.53;1.48;;;13.30;86.60;;;;;;5020436;28;20520;-84
2020/12/23 00:36:54;;;;;;;2.80;1.45;;;13.40;86.70;;;;;;5036787;28;20564;-84
2020/12/23 00:39:20;;;;;;;2.35;1.15;;;13.40;86.60;;;;;;5054899;28;20381;-84
2020/12/23 00:41:45;;;;;;;1.85;1.48;;;13.40;86.60;;;;;;5036907;28;20025;-83
2020/12/23 00:44:11;;;;;;;2.65;1.25;;;13.40;86.60;;;;;;5035280;28;20037;-83
2020/12/23 00:46:37;;;;;;;4.13;1.60;;;13.40;86.50;;;;;;5054505;28;20487;-83
2020/12/23 00:49:03;;;;;;;2.63;1.30;;;13.40;86.50;;;;;;5036994;28;20123;-84
2020/12/23 00:51:28;;;;;;;3.30;2.08;;;13.40;86.40;;;;;;5042850;28;20147;-84
2020/12/23 00:53:54;;;;;;;2.28;1.60;;;13.40;86.60;;;;;;5049145;28;20021;-83
2020/12/23 00:56:19;;;;;;;2.08;1.25;;;13.40;86.50;;;;;;5036731;28;20103;-84
2020/12/23 00:58:45;;;;;;;2.53;1.35;;;13.50;86.60;;;;;;5036599;28;20036;-84
2020/12/23 01:01:11;;;;;;;2.35;1.30;;;13.40;86.60;;;;;;5036501;28;20116;-83
2020/12/23 01:03:36;;;;;;;1.45;1.15;;;13.40;86.70;;;;;;5036169;28;20029;-84
2020/12/23 01:06:09;;;;;;;2.40;1.25;;;13.50;86.60;;;;;;5020004;28;20047;-85
2020/12/23 01:08:35;;;;;;;2.35;1.20;;;13.50;86.60;;;;;;5036238;28;20052;-85
2020/12/23 01:11:04;;;;;;;1.17;1.08;;;13.60;86.70;;;;;;5020516;28;20052;-85
2020/12/23 01:13:29;;;;;;;1.23;1.10;;;13.60;86.70;;;;;;5036500;28;20024;-85
2020/12/23 01:15:55;;;;;;;2.03;1.40;;;13.50;86.60;;;;;;5036685;28;20483;-85
2020/12/23 01:18:20;;;;;;;1.70;1.23;;;13.60;86.70;;;;;;5014583;28;20029;-85
2020/12/23 01:20:46;;;;;;;1.42;1.08;;;13.50;87.20;;;;;;5019737;28;20017;-85
2020/12/23 01:23:11;;;;;;;2.15;1.30;;;13.50;86.50;;;;;;5042211;28;20025;-82
2020/12/23 01:25:37;;;;;;;1.80;1.30;;;13.50;86.30;;;;;;5009251;28;20026;-82
2020/12/23 01:28:03;;;;;;;2.78;1.42;;;13.50;86.50;;;;;;5017812;28;20361;-84
2020/12/23 01:30:28;;;;;;;2.33;1.48;;;13.50;86.50;;;;;;5035848;28;20041;-84
2020/12/23 01:32:54;;;;;;;3.42;1.42;;;13.50;86.60;;;;;;5053856;28;20556;-84
2020/12/23 01:35:19;;;;;;;2.25;1.40;;;13.50;86.70;;;;;;5019618;28;20025;-84
2020/12/23 01:37:45;;;;;;;2.70;1.42;;;13.50;86.70;;;;;;5019650;28;20029;-83
2020/12/23 01:40:11;;;;;;;1.48;0.98;;;13.50;87.20;;;;;;5036022;28;20036;-83
2020/12/23 01:42:37;;;;;;;1.95;1.38;;;13.60;86.70;;;;;;5041878;28;20021;-83
2020/12/23 01:45:04;;;;;;;1.08;1.00;;;13.60;86.70;;;;;;5053810;28;20032;-83
2020/12/23 01:47:31;;;;;;;1.92;1.20;;;13.50;86.50;;;;;;5036541;28;20033;-82
2020/12/23 01:49:57;;;;;;;1.98;1.30;;;13.50;86.60;;;;;;5037069;28;20028;-82
2020/12/23 01:52:23;;;;;;;2.03;1.15;;;13.60;86.80;;;;;;5024338;28;20037;-82
2020/12/23 01:54:50;;;;;;;2.55;1.27;;;13.60;86.90;;;;;;5035776;28;20025;-82
2020/12/23 01:57:16;;;;;;;2.38;1.30;;;13.60;86.90;;;;;;5053500;28;20444;-82
2020/12/23 01:59:49;;;;;;;3.35;1.38;;;13.70;86.90;;;;;;5035938;28;20037;-83
2020/12/23 02:02:29;;;;;;;2.15;1.20;;;13.60;86.80;;;;;;5035810;28;20059;-84
2020/12/23 02:05:06;;;;;;;2.05;1.30;;;13.60;86.80;;;;;;5031469;28;20032;-83
2020/12/23 02:07:32;;;;;;;2.55;1.40;;;13.70;86.90;;;;;;5035285;28;20020;-83
2020/12/23 02:10:00;;;;;;;2.35;1.25;;;13.70;86.80;;;;;;5019218;28;20025;-83
2020/12/23 02:12:26;;;;;;;1.88;1.30;;;13.80;86.80;;;;;;5035487;28;20033;-82
2020/12/23 02:14:56;;;;;;;1.65;1.27;;;13.70;86.70;;;;;;5036718;28;20013;-82
2020/12/23 02:17:22;;;;;;;1.50;1.40;;;13.70;86.70;;;;;;5035681;28;20029;-82
2020/12/23 02:19:51;;;;;;;2.33;1.40;;;13.80;86.80;;;;;;5035535;28;20591;-82
2020/12/23 02:22:18;;;;;;;3.15;1.42;;;13.80;86.80;;;;;;5053431;28;20028;-82
2020/12/23 02:24:48;;;;;;;1.27;1.00;;;13.80;86.60;;;;;;5052650;28;20018;-82
2020/12/23 02:27:15;;;;;;;1.98;1.33;;;13.70;86.60;;;;;;5041758;28;20128;-82
2020/12/23 02:29:45;;;;;;;6.90;1.30;;;13.70;86.60;;;;;;5019296;28;20037;-82
2020/12/23 02:32:11;;;;;;;1.20;1.10;;;13.80;86.80;;;;;;5040742;28;20033;-82
2020/12/23 02:34:37;;;;;;;1.85;1.30;;;13.80;86.80;;;;;;5046167;28;20370;-82
2020/12/23 02:37:04;;;;;;;0.65;0.65;;;13.80;86.70;;;;;;5056367;28;20013;-83
2020/12/23 02:39:30;;;;;;;1.92;1.13;;;13.80;87.30;;;;;;5035507;28;20119;-82
2020/12/23 02:41:58;;;;;;;2.05;1.08;;;13.70;86.80;;;;;;5065578;28;20467;-83
2020/12/23 02:44:24;;;;;;;1.17;0.98;;;13.70;86.80;;;;;;5054741;28;20374;-83
2020/12/23 02:47:01;;;;;;;1.45;1.05;;;13.70;86.80;;;;;;5037523;28;20028;-83
2020/12/23 02:49:27;;;;;;;2.80;1.30;;;13.80;86.80;;;;;;5037898;28;20025;-83
2020/12/23 02:51:53;;;;;;;1.08;0.93;;;13.80;87.40;;;;;;5038072;28;20535;-83
2020/12/23 02:54:19;;;;;;;1.60;1.40;;;13.80;86.70;;;;;;5045950;28;20048;-84
2020/12/23 02:56:45;;;;;;;1.45;1.23;;;13.80;86.70;;;;;;5045444;28;20044;-82
2020/12/23 02:59:11;;;;;;;1.77;1.30;;;13.80;86.70;;;;;;5049988;28;20021;-82
2020/12/23 03:01:37;;;;;;;2.13;1.20;;;13.80;86.70;;;;;;5041284;28;20370;-82
2020/12/23 03:04:03;;;;;;;1.23;1.10;;;13.70;86.70;;;;;;5021747;28;20047;-83
2020/12/23 03:06:29;;;;;;;2.47;1.10;;;13.70;86.80;;;;;;5045557;28;20025;-82
2020/12/23 03:08:55;;;;;;;3.25;1.30;;;13.80;86.80;;;;;;5040020;28;20149;-82
2020/12/23 03:11:20;;;;;;;1.98;1.20;;;13.90;87.00;;;;;;5046726;28;20024;-82
2020/12/23 03:13:46;;;;;;;2.15;1.13;;;13.80;86.90;;;;;;5037761;28;20032;-82
2020/12/23 03:16:12;;;;;;;1.50;1.02;;;13.80;86.70;;;;;;5046017;28;20021;-82
2020/12/23 03:18:39;;;;;;;1.35;1.17;;;13.80;86.80;;;;;;5021214;28;20024;-82
2020/12/23 03:21:05;;;;;;;2.40;0.70;;;13.90;86.80;;;;;;5063072;28;20075;-82
2020/12/23 03:23:31;;;;;;;1.23;1.10;;;13.80;86.60;;;;;;5044610;28;20051;-82
2020/12/23 03:25:57;;;;;;;2.10;1.15;;;13.80;86.70;;;;;;5024689;28;20388;-82
2020/12/23 03:28:22;;;;;;;0.93;0.77;;;13.80;86.70;;;;;;5032821;28;20508;-83
2020/12/23 03:30:48;;;;;;;2.25;1.30;;;13.80;86.60;;;;;;5020467;28;20049;-82
2020/12/23 03:33:13;;;;;;;1.00;1.00;;;13.90;86.80;;;;;;5055125;28;20519;-82
2020/12/23 03:35:39;;;;;;;2.75;1.30;;;13.90;86.90;;;;;;5044874;28;20075;-82
2020/12/23 03:38:04;;;;;;;2.80;1.63;;;13.80;86.80;;;;;;5020410;28;20444;-82
2020/12/23 03:40:30;;;;;;;1.15;0.93;;;13.90;86.80;;;;;;5025662;28;20035;-82
2020/12/23 03:42:56;;;;;;;1.38;1.10;;;13.90;87.20;;;;;;5048520;28;20028;-82
2020/12/23 03:45:21;;;;;;;1.77;1.30;;;13.90;86.70;;;;;;5039946;28;20453;-83
2020/12/23 03:47:47;;;;;;;2.40;1.10;;;13.90;86.80;;;;;;5022881;28;20028;-83
2020/12/23 03:50:12;;;;;;;0.90;0.90;;;13.90;86.80;;;;;;5025265;28;20033;-83
2020/12/23 03:52:38;;;;;;;1.20;1.10;;;13.90;86.80;;;;;;5054726;28;20036;-83
2020/12/23 03:55:03;;;;;;;1.63;1.13;;;13.90;86.80;;;;;;5048940;28;20028;-83
2020/12/23 03:57:29;;;;;;;1.52;1.05;;;14.00;86.80;;;;;;5021038;28;20057;-83
2020/12/23 03:59:54;;;;;;;2.22;1.27;;;14.00;87.30;;;;;;5031940;28;20071;-83
2020/12/23 04:02:20;;;;;;;1.30;1.00;;;14.00;86.70;;;;;;5044502;28;20025;-83
2020/12/23 04:04:46;;;;;;;0.85;0.85;;;13.90;86.60;;;;;;5025063;28;20046;-83
2020/12/23 04:07:11;;;;;;;1.55;1.00;;;14.00;86.80;;;;;;5054899;28;20043;-83
2020/12/23 04:09:37;;;;;;;1.60;1.10;;;14.00;86.80;;;;;;5017187;28;20028;-83
2020/12/23 04:12:02;;;;;;;1.65;1.17;;;14.00;86.80;;;;;;5038792;28;20153;-83
2020/12/23 04:14:28;;;;;;;2.75;1.63;;;14.00;86.80;;;;;;5046195;28;20424;-83
2020/12/23 04:16:53;;;;;;;1.23;1.08;;;14.10;86.80;;;;;;5042595;28;20407;-82
2020/12/23 04:19:19;;;;;;;1.40;1.30;;;14.10;86.70;;;;;;5037898;28;20079;-82
2020/12/23 04:21:45;;;;;;;2.10;1.17;;;14.10;86.60;;;;;;5054109;28;20041;-84
2020/12/23 04:24:10;;;;;;;1.33;1.20;;;14.10;86.50;;;;;;5019720;28;20025;-83
2020/12/23 04:26:36;;;;;;;1.02;0.98;;;14.00;86.40;;;;;;5034727;28;20096;-82
2020/12/23 04:29:02;;;;;;;5.00;1.48;;;14.00;86.20;;;;;;5023930;28;20035;-82
2020/12/23 04:31:27;;;;;;;1.27;1.10;;;14.00;86.20;;;;;;5047016;28;20087;-82
2020/12/23 04:33:53;;;;;;;1.52;1.20;;;13.90;86.30;;;;;;5027490;28;20033;-82
2020/12/23 04:36:18;;;;;;;1.20;1.10;;;13.90;86.40;;;;;;5012534;28;20493;-82
2020/12/23 04:38:44;;;;;;;1.65;1.10;;;13.90;86.30;;;;;;5033184;28;20028;-82
2020/12/23 04:41:10;;;;;;;3.08;1.40;;;14.00;86.30;;;;;;5030064;28;20025;-82
2020/12/23 04:43:36;;;;;;;3.35;1.20;;;13.90;86.30;;;;;;5048012;28;20093;-82
2020/12/23 04:46:02;;;;;;;1.83;1.50;;;13.90;87.10;;;;;;5053861;28;20046;-82
2020/12/23 04:48:31;;;;;;;2.17;1.38;;;13.90;86.70;;;;;;5054382;28;20033;-82
2020/12/23 04:50:57;;;;;;;3.28;1.48;;;13.90;86.50;;;;;;5071605;28;20063;-82
2020/12/23 04:53:24;;;;;;;3.75;1.95;;;13.90;86.20;;;;;;5024633;28;20118;-82
2020/12/23 04:55:49;;;;;;;5.97;2.55;;;13.90;86.40;;;;;;5050676;28;20028;-82
2020/12/23 04:58:15;;;;;;;12.02;6.68;;;13.90;86.50;;;;;;5034362;28;20381;-82
2020/12/23 05:00:41;;;;;;;1.75;1.48;;;13.90;86.30;;;;;;5026830;28;20512;-82
2020/12/23 05:03:06;;;;;;;3.53;1.70;;;13.80;86.10;;;;;;5006575;28;20080;-82
2020/12/23 05:05:32;;;;;;;2.75;1.70;;;13.70;85.60;;;;;;5054256;28;20427;-81
2020/12/23 05:07:59;;;;;;;4.38;1.50;;;13.70;85.60;;;;;;5038016;28;20106;-82
2020/12/23 05:10:31;;;;;;;4.38;1.50;;;13.60;85.80;;;;;;5055579;28;20060;-82
2020/12/23 05:12:56;;;;;;;4.28;2.10;;;13.40;85.80;;;;;;5057404;28;20033;-82
2020/12/23 05:15:23;;;;;;;2.92;1.70;;;13.40;86.00;;;;;;5047257;28;20035;-81
2020/12/23 05:17:51;;;;;;;3.35;1.80;;;13.40;86.10;;;;;;5038862;28;20037;-81
2020/12/23 05:20:17;;;;;;;2.00;1.30;;;13.40;86.30;;;;;;5039772;28;20047;-81
2020/12/23 05:22:47;;;;;;;2.90;1.13;;;13.40;86.40;;;;;;5035562;28;20480;-81
2020/12/23 05:25:15;;;;;;;17.00;8.20;;;13.40;86.20;;;;;;5035171;28;20071;-81
2020/12/23 05:27:42;;;;;;;8.43;4.25;;;13.30;86.40;;;;;;5040901;28;20433;-82
2020/12/23 05:30:10;;;;;;;5.05;1.95;;;13.30;86.50;;;;;;5062068;28;20045;-83
2020/12/23 05:32:39;;;;;;;4.80;1.90;;;13.30;86.50;;;;;;5035060;28;20039;-82
2020/12/23 05:35:05;;;;;;;4.88;1.80;;;13.30;86.60;;;;;;5018787;28;20481;-82
2020/12/23 05:37:31;;;;;;;3.75;1.80;;;13.30;86.40;;;;;;5042665;28;20052;-81
2020/12/23 05:39:57;;;;;;;5.80;1.80;;;13.30;86.70;;;;;;5042325;28;20465;-83
2020/12/23 05:42:23;;;;;;;4.18;1.70;;;13.30;86.80;;;;;;5026083;28;20093;-83
2020/12/23 05:44:51;;;;;;;3.38;1.70;;;13.30;86.50;;;;;;5042635;28;20029;-82
2020/12/23 05:47:25;;;;;;;3.60;1.58;;;13.30;86.50;;;;;;5035644;28;20025;-83
2020/12/23 05:49:52;;;;;;;3.08;1.77;;;13.40;86.80;;;;;;5034913;28;20056;-83
2020/12/23 05:52:22;;;;;;;3.58;1.85;;;13.40;86.70;;;;;;5041847;28;20047;-82
2020/12/23 05:54:52;;;;;;;20.65;11.60;;;13.30;86.60;;;;;;5035068;28;20167;-82
2020/12/23 05:57:19;;;;;;;15.40;8.90;;;13.30;86.90;;;;;;5038645;28;20058;-81
2020/12/23 05:59:46;;;;;;;5.78;2.40;;;13.40;87.10;;;;;;5045766;28;20050;-82
2020/12/23 06:02:12;;;;;;;5.88;2.25;;;13.50;86.80;;;;;;5053174;28;20016;-81
2020/12/23 06:04:42;;;;;;;4.13;2.03;;;13.50;86.90;;;;;;5036968;28;20032;-81
2020/12/23 06:07:07;;;;;;;4.60;2.00;;;13.40;86.80;;;;;;5041646;28;20052;-81
2020/12/23 06:09:57;;;;;;;4.55;2.00;;;13.50;87.10;;;;;;5029833;28;20161;-81
2020/12/23 06:12:23;;;;;;;14.32;7.07;;;13.40;86.70;;;;;;5053795;28;20429;-81
2020/12/23 06:14:57;;;;;;;9.82;4.45;;;13.50;86.80;;;;;;5018072;28;20029;-80
2020/12/23 06:17:24;;;;;;;6.97;2.80;;;13.40;86.70;;;;;;5034502;28;20017;-83
2020/12/23 06:20:02;;;;;;;8.73;2.78;;;13.50;87.00;;;;;;5042912;28;20029;-92
2020/12/23 06:22:28;;;;;;;4.88;2.35;;;13.50;88.20;;;;;;5047803;28;20032;-91
2020/12/23 06:25:00;;;;;;;4.93;2.20;;;13.60;87.80;;;;;;5050277;28;20029;-91
2020/12/23 06:27:31;;;;;;;3.10;1.80;;;13.60;86.60;;;;;;5035311;28;20033;-83
2020/12/23 06:29:57;;;;;;;2.20;1.60;;;13.50;86.10;;;;;;5039814;28;20029;-84
2020/12/23 06:32:24;;;;;;;3.33;1.88;;;13.30;86.20;;;;;;5054061;28;20032;-86
2020/12/23 06:35:00;;;;;;;3.50;1.85;;;13.30;86.40;;;;;;5051512;28;20013;-87
2020/12/23 06:37:32;;;;;;;3.35;1.80;;;13.30;86.40;;;;;;5039481;28;20075;-86
2020/12/23 06:39:58;;;;;;;4.82;2.20;;;13.00;86.50;;;;;;5046436;28;20024;-85
2020/12/23 06:42:28;;;;;;;4.57;1.98;;;13.10;86.30;;;;;;5040979;28;20027;-85
2020/12/23 06:44:59;;;;;;;3.42;1.95;;;13.10;86.50;;;;;;5057389;28;21112;-90
2020/12/23 06:47:27;;;;;;;5.53;2.30;;;13.10;86.60;;;;;;5043593;28;20025;-91
2020/12/23 06:49:58;;;;;;;4.63;2.00;;;13.10;86.60;;;;;;5057292;28;20452;-91
2020/12/23 06:55:03;;;;;;;4.90;2.40;;;13.10;86.70;;;;;;5052640;28;20025;-89
2020/12/23 06:57:37;;;;;;;6.95;2.40;;;13.10;86.70;;;;;;5053834;28;20451;-89
2020/12/23 07:00:19;;;;;;;4.05;2.17;;;13.00;86.60;;;;;;5049462;28;20469;-88
2020/12/23 07:33:17;;;;;;;2.90;1.67;;;12.90;86.80;;;;;;4939195;28;20081;-85
2020/12/23 07:50:20;;;;;;;5.88;2.40;;;12.70;87.20;;;;;;4934678;29;20497;-86
2020/12/23 07:56:57;;;;;;;4.00;1.80;;;12.70;87.40;;;;;;4936406;29;20123;-88
2020/12/23 08:00:16;;;;;;;4.18;2.17;;;12.80;87.40;;;;;;4947254;29;20027;-92
2020/12/23 08:06:32;;;;;;;2.97;1.55;;;12.80;87.30;;;;;;4871556;29;20521;-92
2020/12/23 08:08:58;;;;;;;3.13;1.80;;;12.80;87.50;;;;;;4900829;29;20056;-90
2020/12/23 08:11:24;;;;;;;5.28;2.13;;;12.90;87.70;;;;;;4920759;28;20027;-92
2020/12/23 08:17:06;;;;;;;3.40;2.00;;;12.90;87.60;;;;;;4935825;28;20038;-90
2020/12/23 08:19:55;;;;;;;6.80;2.67;;;13.00;87.50;;;;;;4940717;29;20479;-89
2020/12/23 08:22:56;;;;;;;5.53;2.20;;;13.00;87.30;;;;;;4943655;29;20046;-91
2020/12/23 08:25:35;;;;;;;3.28;1.60;;;13.00;87.40;;;;;;4952720;29;20038;-89
2020/12/23 08:28:26;;;;;;;3.35;1.83;;;13.10;87.00;;;;;;4954641;29;20445;-89
2020/12/23 08:30:52;;;;;;;3.35;1.85;;;13.00;87.30;;;;;;4955814;29;20042;-89
2020/12/23 08:33:22;;;;;;;4.40;2.85;;;13.00;87.40;;;;;;4955648;29;20027;-90
2020/12/23 08:35:57;;;;;;;4.60;2.05;;;13.10;87.60;;;;;;4955025;28;20043;-92
2020/12/23 08:38:26;;;;;;;4.72;1.92;;;13.10;87.60;;;;;;4955894;28;20034;-91
2020/12/23 08:41:09;;;;;;;3.88;1.98;;;13.20;87.60;;;;;;4939294;29;20547;-90
2020/12/23 08:43:34;;;;;;;4.70;2.20;;;13.20;87.60;;;;;;4954858;28;20115;-91
2020/12/23 08:46:01;;;;;;;4.93;1.98;;;13.20;87.70;;;;;;4955517;29;20055;-91
2020/12/23 08:48:28;;;;;;;3.80;1.80;;;13.30;87.60;;;;;;4955531;29;20074;-90
2020/12/23 08:51:04;;;;;;;5.82;2.00;;;13.30;87.50;;;;;;4955069;29;20114;-90
2020/12/23 08:53:34;;;;;;;3.38;1.48;;;13.30;87.50;;;;;;4956018;28;20086;-91
2020/12/23 08:56:01;;;;;;;2.58;1.60;;;13.30;87.30;;;;;;4956758;29;20019;-92
2020/12/23 08:58:28;;;;;;;3.95;1.80;;;13.20;87.20;;;;;;4939731;29;20035;-93
2020/12/23 09:01:00;;;;;;;2.97;1.48;;;13.30;87.50;;;;;;4955118;29;20025;-91
2020/12/23 09:03:27;;;;;;;4.53;2.10;;;13.30;87.60;;;;;;4954458;29;20104;-91
2020/12/23 09:05:56;;;;;;;4.55;2.20;;;13.30;87.50;;;;;;4954986;29;20028;-91
2020/12/23 09:08:24;;;;;;;5.25;2.25;;;13.40;87.70;;;;;;4955432;29;20035;-90
2020/12/23 09:10:56;;;;;;;5.18;2.50;;;13.50;87.70;;;;;;4955190;29;20023;-94
2020/12/23 09:13:32;;;;;;;7.05;2.38;;;13.40;87.70;;;;;;4954863;29;20035;-94
2020/12/23 09:15:59;;;;;;;7.03;2.67;;;13.40;87.60;;;;;;4955350;29;20093;-91
2020/12/23 09:18:26;;;;;;;6.13;2.75;;;13.50;87.60;;;;;;4955654;29;20591;-91
2020/12/23 09:21:00;;;;;;;7.45;2.67;;;13.50;87.60;;;;;;4954181;29;20495;-92
2020/12/23 09:23:26;;;;;;;7.95;3.25;;;13.60;87.80;;;;;;4958294;29;20031;-91
2020/12/23 09:25:53;;;;;;;7.68;3.13;;;13.60;87.50;;;;;;4955955;28;20031;-93
2020/12/23 09:28:20;;;;;;;7.97;3.45;;;13.60;87.60;;;;;;4954647;29;20093;-92
2020/12/23 09:30:50;;;;;;;6.28;3.00;;;13.60;87.80;;;;;;4955165;29;20031;-92
2020/12/23 09:33:21;;;;;;;7.88;2.83;;;13.70;87.90;;;;;;4954772;29;20054;-95
2020/12/23 09:36:04;;;;;;;6.63;2.90;;;13.70;87.60;;;;;;4954531;29;20027;-92
2020/12/23 09:38:36;;;;;;;6.80;3.05;;;13.80;87.90;;;;;;4954873;29;20376;-91
2020/12/23 09:41:04;;;;;;;7.72;3.30;;;13.80;87.80;;;;;;4955389;29;20050;-90
2020/12/23 09:43:35;;;;;;;8.68;2.90;;;13.90;87.90;;;;;;4955862;29;20042;-89
2020/12/23 09:46:12;;;;;;;7.35;3.13;;;13.90;87.80;;;;;;4957704;28;20023;-90
2020/12/23 09:51:25;;;;;;;8.80;3.75;;;14.00;87.60;;;;;;4956560;29;20038;-91
2020/12/23 09:53:51;;;;;;;8.65;3.67;;;14.00;87.50;;;;;;4956354;28;20027;-91
2020/12/23 09:56:17;;;;;;;8.57;3.55;;;14.00;87.50;;;;;;4938227;29;20023;-92
2020/12/23 09:58:43;;;;;;;6.68;3.03;;;14.10;88.10;;;;;;4938569;29;20027;-91
2020/12/23 10:01:08;;;;;;;7.10;3.35;;;14.10;87.90;;;;;;4953972;28;20420;-92
2020/12/23 10:03:34;;;;;;;7.80;2.97;;;14.20;87.80;;;;;;4954768;29;20034;-94
2020/12/23 10:06:00;;;;;;;6.10;2.70;;;14.20;87.70;;;;;;4955005;29;20038;-92
2020/12/23 10:08:26;;;;;;;7.63;3.25;;;14.20;87.70;;;;;;4959578;28;20035;-94
2020/12/23 10:10:53;;;;;;;7.15;3.00;;;14.30;87.70;;;;;;4955609;29;20031;-93
2020/12/23 10:13:22;;;;;;;6.93;3.15;;;14.30;87.90;;;;;;4953962;29;20035;-90
2020/12/23 10:15:49;;;;;;;7.20;3.22;;;14.30;87.80;;;;;;4954701;28;20052;-89
2020/12/23 10:18:15;;;;;;;9.30;3.10;;;14.40;87.90;;;;;;4954091;29;20484;-91
2020/12/23 10:20:41;;;;;;;8.20;2.92;;;14.40;87.70;;;;;;4953891;29;20033;-89
2020/12/23 10:23:07;;;;;;;7.72;2.83;;;14.40;87.30;;;;;;4954334;29;20058;-90
2020/12/23 10:25:39;;;;;;;6.15;2.88;;;14.30;87.20;;;;;;4953424;29;20555;-90
2020/12/23 10:28:05;;;;;;;9.80;3.20;;;14.30;87.40;;;;;;4938138;29;20070;-88
2020/12/23 10:30:36;;;;;;;6.63;2.92;;;14.40;88.00;;;;;;4953945;29;20365;-90
2020/12/23 10:33:13;;;;;;;7.07;3.28;;;14.50;87.60;;;;;;4954815;29;20499;-93
2020/12/23 10:35:39;;;;;;;8.95;2.80;;;14.40;87.30;;;;;;4945818;29;20030;-90
2020/12/23 10:44:36;;;;;;;7.72;2.78;;;14.50;87.80;;;;;;4950857;29;20075;-89
2020/12/23 10:47:02;;;;;;;9.73;3.50;;;14.60;88.10;;;;;;4954672;28;20360;-87
2020/12/23 10:49:28;;;;;;;7.10;3.20;;;14.70;88.20;;;;;;4953772;29;20024;-84
2020/12/23 10:51:57;;;;;;;7.57;3.30;;;14.70;87.70;;;;;;4953501;29;20071;-88
2020/12/23 10:54:24;;;;;;;6.63;2.92;;;14.80;88.30;;;;;;4958526;29;20028;-87
2020/12/23 10:56:53;;;;;;;6.82;3.22;;;14.90;88.10;;;;;;4953259;28;20023;-87
2020/12/23 10:59:19;;;;;;;7.15;3.20;;;15.00;88.10;;;;;;4952963;29;20027;-87
2020/12/23 11:01:45;;;;;;;8.20;3.13;;;15.10;88.20;;;;;;4953189;29;20042;-87
2020/12/23 11:04:11;;;;;;;6.30;2.85;;;15.20;88.30;;;;;;4952402;29;20023;-85
2020/12/23 11:06:37;;;;;;;7.55;3.30;;;15.20;87.90;;;;;;4952850;28;20023;-88
2020/12/23 11:09:04;;;;;;;7.88;3.50;;;15.30;87.80;;;;;;4956128;29;20027;-87
2020/12/23 11:11:30;;;;;;;8.98;3.20;;;15.30;87.70;;;;;;4955789;29;20028;-88
2020/12/23 11:13:56;;;;;;;7.60;3.13;;;15.40;87.60;;;;;;4956243;29;20027;-88
2020/12/23 11:16:25;;;;;;;8.15;3.40;;;15.30;87.40;;;;;;4955749;29;20030;-87
2020/12/23 11:18:52;;;;;;;7.50;3.40;;;15.30;87.60;;;;;;4957428;28;20047;-87
2020/12/23 11:21:18;;;;;;;6.93;3.13;;;15.30;87.20;;;;;;4956904;28;20019;-85
2020/12/23 11:23:44;;;;;;;7.35;2.90;;;15.40;87.40;;;;;;4957042;29;20023;-86
2020/12/23 11:26:24;;;;;;;7.28;2.80;;;15.40;87.50;;;;;;4956478;29;20031;-87
2020/12/23 11:29:00;;;;;;;6.28;2.78;;;15.50;87.60;;;;;;4955852;29;20055;-88
2020/12/23 11:31:26;;;;;;;7.35;2.92;;;15.50;87.50;;;;;;4942257;29;20122;-88
2020/12/23 11:33:52;;;;;;;7.10;2.90;;;15.50;87.60;;;;;;4956180;28;20452;-90
2020/12/23 11:36:18;;;;;;;6.90;3.28;;;15.50;87.70;;;;;;4955927;29;20043;-92
2020/12/23 11:38:44;;;;;;;6.75;2.72;;;15.60;87.60;;;;;;4956777;29;20061;-90
2020/12/23 11:41:10;;;;;;;8.35;3.38;;;15.60;87.70;;;;;;4956194;29;20122;-90
2020/12/23 11:43:36;;;;;;;6.63;3.00;;;15.60;87.50;;;;;;4956399;29;20075;-90
2020/12/23 11:46:03;;;;;;;6.05;2.65;;;15.60;87.30;;;;;;4955690;28;20046;-89
2020/12/23 11:48:30;;;;;;;8.32;2.60;;;15.60;87.30;;;;;;4956629;29;20028;-89
2020/12/23 11:50:56;;;;;;;6.63;2.75;;;15.60;87.00;;;;;;4956291;29;20027;-88
2020/12/23 11:53:22;;;;;;;6.82;3.00;;;15.50;87.10;;;;;;4957099;29;20086;-89
2020/12/23 11:55:50;;;;;;;6.20;2.88;;;15.50;86.80;;;;;;4956387;29;20019;-89
2020/12/23 11:58:18;;;;;;;6.40;2.70;;;15.50;86.70;;;;;;4956023;29;20027;-90
2020/12/23 12:04:18;;;;;;;7.40;2.55;;;15.40;87.00;;;;;;4953144;29;20472;-88
2020/12/23 12:06:44;;;;;;;6.80;2.38;;;15.40;87.10;;;;;;4955761;29;20023;-84
2020/12/23 12:09:10;;;;;;;5.63;2.50;;;15.40;87.40;;;;;;4960896;29;20544;-89
2020/12/23 12:11:36;;;;;;;7.55;2.50;;;15.40;87.30;;;;;;4955026;29;20023;-88
2020/12/23 12:14:02;;;;;;;5.97;2.33;;;15.50;87.50;;;;;;4955166;29;20023;-88
2020/12/23 12:16:28;;;;;;;8.07;2.40;;;15.50;87.30;;;;;;4955505;29;20023;-84
2020/12/23 12:18:54;;;;;;;5.97;2.35;;;15.60;87.80;;;;;;4956053;28;20027;-85
2020/12/23 12:21:20;;;;;;;6.60;2.35;;;15.60;87.70;;;;;;4955891;29;20030;-81
2020/12/23 12:23:45;;;;;;;4.28;2.30;;;15.70;87.50;;;;;;4954052;29;20023;-83
2020/12/23 12:26:11;;;;;;;6.25;2.80;;;15.60;87.20;;;;;;4954771;29;20119;-83
2020/12/23 12:28:37;;;;;;;6.82;2.80;;;15.70;87.30;;;;;;4954585;29;20185;-84
2020/12/23 12:31:03;;;;;;;6.78;2.58;;;15.70;86.80;;;;;;4954585;29;20495;-83
2020/12/23 12:33:29;;;;;;;5.78;2.40;;;15.70;87.00;;;;;;4955001;29;20062;-84
2020/12/23 12:35:54;;;;;;;5.47;2.45;;;15.60;86.70;;;;;;4954407;28;20368;-82
2020/12/23 12:38:20;;;;;;;5.53;2.25;;;15.60;87.30;;;;;;4954677;29;20105;-81
2020/12/23 12:40:46;;;;;;;7.78;2.75;;;15.60;87.00;;;;;;4954820;29;20027;-82
2020/12/23 12:43:14;;;;;;;6.72;2.97;;;15.60;87.00;;;;;;4954659;29;20024;-85
2020/12/23 12:45:40;;;;;;;5.03;2.30;;;15.50;87.00;;;;;;4939482;29;20031;-90
2020/12/23 12:48:05;;;;;;;5.72;2.33;;;15.50;86.80;;;;;;4939192;29;20042;-89
2020/12/23 12:50:31;;;;;;;7.03;2.50;;;15.40;86.80;;;;;;4953350;28;20086;-88
2020/12/23 12:52:57;;;;;;;6.43;2.88;;;15.40;86.90;;;;;;4962236;28;20369;-89
2020/12/23 12:55:22;;;;;;;9.52;4.55;;;15.40;87.50;;;;;;4939379;29;20451;-88
2020/12/23 12:57:48;;;;;;;5.22;2.15;;;15.40;87.10;;;;;;4954889;29;20057;-89
2020/12/23 13:00:13;;;;;;;4.82;2.28;;;15.40;86.80;;;;;;4955159;29;20023;-89
2020/12/23 13:02:39;;;;;;;4.63;2.25;;;15.30;86.70;;;;;;4937403;29;20063;-89
2020/12/23 13:05:07;;;;;;;5.72;2.30;;;15.20;86.90;;;;;;4954691;29;20057;-89
2020/12/23 13:07:32;;;;;;;6.22;2.42;;;15.20;87.10;;;;;;4959970;29;20034;-88
2020/12/23 13:09:59;;;;;;;4.40;2.00;;;15.20;87.40;;;;;;4954471;29;20392;-88
2020/12/23 13:12:26;;;;;;;5.35;2.20;;;15.30;87.40;;;;;;4954524;29;20081;-88
2020/12/23 13:14:52;;;;;;;5.47;2.40;;;15.30;87.20;;;;;;4956195;28;20102;-89
2020/12/23 13:17:18;;;;;;;4.95;2.20;;;15.20;86.80;;;;;;4960993;28;20035;-87
2020/12/23 13:19:44;;;;;;;3.25;1.90;;;15.20;87.10;;;;;;4956427;29;20030;-87
2020/12/23 13:22:10;;;;;;;4.00;2.03;;;15.20;87.10;;;;;;4954831;29;20023;-90
2020/12/23 13:24:35;;;;;;;3.15;2.05;;;15.20;87.50;;;;;;4954464;28;20082;-86
2020/12/23 13:27:04;;;;;;;5.75;2.42;;;15.10;87.00;;;;;;4955843;28;20019;-89
2020/12/23 13:29:29;;;;;;;4.70;2.22;;;15.10;87.10;;;;;;4952467;28;20039;-85
2020/12/23 13:31:59;;;;;;;4.68;2.17;;;15.10;87.10;;;;;;4953982;29;20046;-85
2020/12/23 13:34:25;;;;;;;6.82;2.40;;;15.10;86.90;;;;;;4953710;29;20027;-85
2020/12/23 13:36:51;;;;;;;4.97;2.00;;;15.20;87.10;;;;;;4955634;28;20093;-85
2020/12/23 13:39:16;;;;;;;3.95;1.98;;;15.10;87.00;;;;;;4954270;28;20035;-86
2020/12/23 13:41:47;;;;;;;7.07;2.50;;;15.10;87.10;;;;;;4937726;29;20369;-89
2020/12/23 13:44:14;;;;;;;5.43;2.35;;;15.10;87.10;;;;;;4955531;29;20196;-89
2020/12/23 13:46:40;;;;;;;5.45;2.40;;;15.10;87.10;;;;;;4959599;29;20031;-93
2020/12/23 13:49:08;;;;;;;5.97;2.05;;;15.10;87.20;;;;;;4961429;29;20027;-93
2020/12/23 13:51:34;;;;;;;8.77;2.75;;;15.10;87.20;;;;;;4966268;28;20035;-92
2020/12/23 13:54:01;;;;;;;8.98;3.13;;;15.20;87.30;;;;;;4959705;28;20054;-92
2020/12/23 13:56:27;;;;;;;5.53;2.15;;;15.20;87.20;;;;;;4947607;29;20039;-93
2020/12/23 13:58:56;;;;;;;5.05;2.03;;;15.10;86.80;;;;;;4942341;29;20038;-93